X  Fermer Données météorologiques d'aviation de Metar     KBNA Nashville International Airport
Température
84°F Température
59°F Point de rosée
43% Humidité



Vitesse
3 MPH
5 KM/H
1 M/S
3 KTS



80°
Est
Conditions actuelles

Nuages épars Nuages épars
Pression 1016.22 (hPa) - 30.01 (inHg)
Visibilité 10 (mile) - 16.1 (km)
Aéroport
Code de l'aéroport KBNA

Emplacement: Nashville International Airport
Distance: 28 (mi)

Metar:
KBNA 181753Z 08003KT 10SM SCT046 29/15 A3001 RMK AO2 SLP154 T02940150 10300 20206 56007

Temps: 08-18-2022 12:53 pm CDT